Strattanville, Pennsylvania
Current Conditions -  °F | °C
As of 4:53 AM on Saturday 29 Nov 2014 (Local Time) from KDUJ Reporting Station
Overcast Overcast  
Wind Chill: 15°   Ceiling: 6000
Heat Index: 23°   Visibility: 10mi
Dew Point: 19°   Wind: 7mph
Humidity: 85%   Direction: 130°SE
Pressure: 30.11"   Gusts: NA
Location:  41.2°N, 79.33°W
Report Text: KDUJ 290953Z AUTO 13006KT 10SM OVC060 M05/M07 A3011 RMK AO2 SNE08 SLP222 P0000 T10501072
Loading
Personal Weather Stations






























Interactive Weather Map New forecast layout! Learn more

10-Day Weather Forecast

Advertisements
Track Severe Weather on mobile